Flight Briefing for CPX437

Departure Arrival
Cincinnati/Northern Kentucky International Airport (KCVG)
Click to view FAA NOTAMS
Philadelphia International Airport (KPHL)
Click to view FAA NOTAMS
Departure Time Arrival Time
N/A N/A
Aircraft Distance
B757-200SF 462nm
Departure METAR Arrival METAR
KCVG 212252Z 08011KT 10SM FEW110 SCT230 BKN300 21/09 A3002 RMK AO2 SLP160 T02060089 KPHL 212254Z 29010KT 10SM FEW150 BKN250 22/04 A3000 RMK AO2 SLP159 T02220044
Suggested Route
ROCKT9 AHTIY JST BOJID2


View recent IFR Routes data
Notes



Charts and Procedures

Charts for KCVG
No chart available
Charts for KPHL
No chart available

Windy.com Weather Map